Time;durP1;ratioP1;P1;durP2;ratioP2;P2;SDS_P1;SDS_P2;PMS_P1;PMS_P2;Temp;Humidity;BMP_temperature;BMP_pressure;BME280_temperature;BME280_humidity;BME280_pressure;Samples;Min_cycle;Max_cycle;Signal;HPM_P1;HPM_P2
2022/01/29 00:01:28;;;;;;;5.38;2.67;;;;;;;-4.30;94.89;100086.91;5035326;28;20083;-85
2022/01/29 00:03:54;;;;;;;3.08;2.40;;;;;;;-4.29;94.96;100088.56;5041924;28;20120;-85
2022/01/29 00:06:20;;;;;;;4.32;2.25;;;;;;;-4.26;94.96;100087.34;5044745;28;20071;-85
2022/01/29 00:08:46;;;;;;;4.95;3.00;;;;;;;-4.27;95.68;100091.03;5046801;28;20051;-85
2022/01/29 00:11:14;;;;;;;4.70;3.10;;;;;;;-4.27;94.95;100080.31;5044315;28;20037;-84
2022/01/29 00:13:41;;;;;;;3.25;2.58;;;;;;;-4.28;95.36;100087.53;5026309;28;20042;-84
2022/01/29 00:16:10;;;;;;;3.83;2.55;;;;;;;-4.29;95.38;100085.88;5043047;28;20128;-84
2022/01/29 00:18:38;;;;;;;4.85;3.03;;;;;;;-4.30;95.43;100081.56;5033444;28;20044;-85
2022/01/29 00:21:04;;;;;;;4.07;3.33;;;;;;;-4.31;95.41;100082.56;5033871;28;20041;-85
2022/01/29 00:23:30;;;;;;;5.13;3.00;;;;;;;-4.30;95.08;100081.56;5034003;28;20500;-84
2022/01/29 00:25:56;;;;;;;6.28;3.30;;;;;;;-4.31;95.54;100090.63;5047093;28;20037;-84
2022/01/29 00:28:21;;;;;;;6.57;3.10;;;;;;;-4.30;95.22;100091.44;5036256;28;20101;-86
2022/01/29 00:30:47;;;;;;;6.00;3.75;;;;;;;-4.30;95.27;100086.91;5046926;28;20041;-86
2022/01/29 00:33:13;;;;;;;5.88;3.17;;;;;;;-4.27;95.69;100085.69;5032489;28;20514;-86
2022/01/29 00:35:39;;;;;;;5.93;3.40;;;;;;;-4.28;95.63;100084.84;5033242;28;20522;-86
2022/01/29 00:38:05;;;;;;;6.28;3.30;;;;;;;-4.28;95.77;100086.72;5064894;28;20056;-84
2022/01/29 00:40:32;;;;;;;8.20;3.50;;;;;;;-4.28;95.77;100087.53;5045917;28;20046;-85
2022/01/29 00:42:59;;;;;;;7.15;3.17;;;;;;;-4.26;95.86;100098.88;5035440;28;20029;-86
2022/01/29 00:45:25;;;;;;;4.95;3.00;;;;;;;-4.23;96.05;100097.66;5041380;28;20051;-85
2022/01/29 00:47:51;;;;;;;7.15;3.58;;;;;;;-4.24;96.12;100098.66;5045811;28;20161;-84
2022/01/29 00:50:17;;;;;;;8.70;3.53;;;;;;;-4.23;96.05;100100.31;5040370;28;20633;-84
2022/01/29 00:52:42;;;;;;;5.28;3.22;;;;;;;-4.23;96.28;100104.84;5041478;28;20033;-84
2022/01/29 00:55:10;;;;;;;5.25;3.28;;;;;;;-4.22;96.43;100095.78;5041672;28;20043;-84
2022/01/29 00:57:38;;;;;;;4.65;3.00;;;;;;;-4.20;96.14;100102.59;5040845;28;20052;-84
2022/01/29 01:00:12;;;;;;;7.53;3.30;;;;;;;-4.18;95.93;100102.41;5032494;28;20144;-84
2022/01/29 01:02:39;;;;;;;6.15;3.15;;;;;;;-4.16;96.07;100109.25;5036978;28;20411;-84
2022/01/29 01:05:05;;;;;;;4.90;3.20;;;;;;;-4.16;96.35;100106.56;5041105;28;20037;-83
2022/01/29 01:07:33;;;;;;;8.13;3.45;;;;;;;-4.15;96.27;100113.56;5045680;28;20041;-84
2022/01/29 01:09:59;;;;;;;6.07;3.50;;;;;;;-4.14;96.58;100109.03;5049899;28;20079;-84
2022/01/29 01:12:25;;;;;;;5.15;2.85;;;;;;;-4.13;96.42;100111.50;5015929;28;20447;-84
2022/01/29 01:14:51;;;;;;;5.57;3.15;;;;;;;-4.14;96.24;100109.88;5031913;28;20044;-84
2022/01/29 01:17:18;;;;;;;6.47;3.75;;;;;;;-4.11;96.36;100117.50;5043999;28;20041;-84
2022/01/29 01:19:45;;;;;;;5.50;3.10;;;;;;;-4.10;96.48;100108.44;5048540;28;20029;-85
2022/01/29 01:22:11;;;;;;;4.50;2.90;;;;;;;-4.09;96.76;100112.75;5034102;28;20037;-84
2022/01/29 01:24:37;;;;;;;6.05;2.95;;;;;;;-4.06;96.31;100120.41;5049724;28;20071;-84
2022/01/29 01:27:02;;;;;;;3.28;2.42;;;;;;;-4.07;96.72;100118.75;5052113;28;20061;-85
2022/01/29 01:29:28;;;;;;;3.95;2.42;;;;;;;-4.06;96.75;100108.84;5042020;28;20091;-84
2022/01/29 01:31:54;;;;;;;4.57;2.75;;;;;;;-4.05;96.83;100119.38;5042686;28;20180;-84
2022/01/29 01:34:22;;;;;;;4.53;2.30;;;;;;;-4.02;96.77;100110.09;5038394;28;20156;-84
2022/01/29 01:36:56;;;;;;;5.07;2.42;;;;;;;-4.01;96.36;100109.91;5038023;28;20056;-85
2022/01/29 01:39:28;;;;;;;4.00;2.63;;;;;;;-4.02;96.82;100105.56;5041139;28;20051;-85
2022/01/29 01:42:07;;;;;;;3.15;2.47;;;;;;;-4.01;96.78;100109.91;5046905;28;20576;-85
2022/01/29 01:44:37;;;;;;;;;;;;;;;-4.00;96.93;100113.41;5038445;28;20045;-85
2022/01/29 01:47:03;;;;;;;3.38;2.20;;;;;;;-4.01;97.07;100127.84;5051650;28;19921;-84
2022/01/29 01:49:28;;;;;;;5.93;2.40;;;;;;;-4.01;96.92;100128.66;5047431;28;20036;-85
2022/01/29 01:51:54;;;;;;;4.63;2.60;;;;;;;-4.00;97.07;100129.47;5046382;28;20144;-85
2022/01/29 01:54:20;;;;;;;3.72;2.45;;;;;;;-4.00;97.06;100130.31;5047122;28;20049;-85
2022/01/29 01:56:46;;;;;;;4.57;2.30;;;;;;;-4.00;96.82;100137.53;5047243;28;20420;-84
2022/01/29 01:59:12;;;;;;;3.33;2.03;;;;;;;-4.01;96.70;100135.88;5038319;28;20041;-85
2022/01/29 02:01:38;;;;;;;5.53;2.47;;;;;;;-4.01;97.06;100141.22;5044955;28;20052;-85
2022/01/29 02:04:04;;;;;;;2.90;1.98;;;;;;;-4.01;96.81;100143.91;5049015;28;20040;-84
2022/01/29 02:06:29;;;;;;;2.85;2.03;;;;;;;-4.01;96.72;100144.72;5047497;28;20037;-84
2022/01/29 02:08:59;;;;;;;3.17;2.03;;;;;;;-4.00;96.92;100141.03;5045527;28;20052;-85
2022/01/29 02:11:26;;;;;;;3.85;2.05;;;;;;;-3.98;96.91;100139.00;5032749;28;20108;-84
2022/01/29 02:13:55;;;;;;;2.80;1.90;;;;;;;-3.97;96.68;100143.34;5033745;28;20052;-85
2022/01/29 02:16:23;;;;;;;2.75;2.05;;;;;;;-3.96;97.14;100138.81;5033414;28;20041;-85
2022/01/29 02:18:52;;;;;;;3.67;2.13;;;;;;;-3.97;96.57;100148.69;5036886;28;20134;-85
2022/01/29 02:21:19;;;;;;;3.25;1.83;;;;;;;-3.98;96.96;100149.72;5037256;28;20492;-85
2022/01/29 02:23:45;;;;;;;2.60;2.08;;;;;;;-3.97;96.87;100153.22;5042238;28;20132;-85
2022/01/29 02:26:10;;;;;;;3.95;2.00;;;;;;;-3.98;97.11;100148.91;5032342;28;20128;-85
2022/01/29 02:28:36;;;;;;;2.83;2.10;;;;;;;-3.98;97.27;100152.41;5036840;28;20044;-85
2022/01/29 02:31:04;;;;;;;2.85;2.00;;;;;;;-3.99;97.26;100144.56;5040874;28;20033;-84
2022/01/29 02:33:33;;;;;;;2.65;1.80;;;;;;;-3.97;97.25;100155.91;5035333;28;20037;-84
2022/01/29 02:35:59;;;;;;;4.20;2.10;;;;;;;-3.99;97.05;100153.44;5038241;28;20040;-84
2022/01/29 02:38:26;;;;;;;4.47;2.38;;;;;;;-3.99;97.17;100150.75;5059681;28;20045;-84
2022/01/29 02:41:03;;;;;;;4.47;2.75;;;;;;;-3.99;97.25;100149.94;5036518;28;20040;-85
2022/01/29 02:43:38;;;;;;;3.78;2.40;;;;;;;-4.01;97.03;100150.09;5038314;28;20051;-85
2022/01/29 02:46:19;;;;;;;3.15;2.03;;;;;;;-4.03;97.39;100157.50;5028209;28;20499;-85
2022/01/29 02:48:46;;;;;;;2.60;2.20;;;;;;;-4.04;97.02;100153.19;5030878;28;20073;-85
2022/01/29 02:51:12;;;;;;;2.70;2.30;;;;;;;-4.06;96.77;100154.41;5035543;28;20040;-85
2022/01/29 02:53:38;;;;;;;2.97;2.22;;;;;;;-4.07;97.40;100150.91;5033984;28;20056;-85
2022/01/29 02:56:04;;;;;;;2.75;2.13;;;;;;;-4.08;96.96;100165.31;5035726;28;20067;-85
2022/01/29 02:58:30;;;;;;;2.83;2.08;;;;;;;-4.10;97.12;100172.72;5038259;28;20088;-85
2022/01/29 03:00:55;;;;;;;2.72;1.88;;;;;;;-4.13;96.71;100167.78;5041823;28;20037;-84
2022/01/29 03:03:21;;;;;;;2.95;1.85;;;;;;;-4.16;96.89;100168.19;5041242;28;20107;-84
2022/01/29 03:05:49;;;;;;;2.08;1.70;;;;;;;-4.16;96.71;100168.19;5037701;28;20123;-85
2022/01/29 03:08:23;;;;;;;2.50;1.67;;;;;;;-4.16;97.07;100159.31;5038337;28;20073;-84
2022/01/29 03:10:49;;;;;;;2.13;1.65;;;;;;;-4.17;97.17;100155.78;5033593;28;20033;-84
2022/01/29 03:13:16;;;;;;;2.38;1.73;;;;;;;-4.17;96.83;100165.66;5037029;28;20091;-84
2022/01/29 03:15:42;;;;;;;1.35;1.20;;;;;;;-4.17;96.97;100163.00;5036635;28;20041;-85
2022/01/29 03:18:08;;;;;;;2.72;1.48;;;;;;;-4.19;96.86;100165.03;5033004;28;20041;-85
2022/01/29 03:20:34;;;;;;;2.15;1.50;;;;;;;-4.18;96.65;100170.19;5039738;28;20052;-84
2022/01/29 03:23:00;;;;;;;1.80;1.45;;;;;;;-4.17;96.59;100168.34;5031747;28;20033;-85
2022/01/29 03:25:26;;;;;;;1.83;1.40;;;;;;;-4.17;96.55;100171.84;5042362;28;20041;-84
2022/01/29 03:27:52;;;;;;;1.42;1.33;;;;;;;-4.17;96.84;100179.06;5036344;28;20263;-85
2022/01/29 03:30:18;;;;;;;3.55;1.75;;;;;;;-4.20;96.69;100174.94;5033617;28;20041;-84
2022/01/29 03:32:44;;;;;;;1.92;1.50;;;;;;;-4.21;96.33;100167.91;5036785;28;20044;-84
2022/01/29 03:35:10;;;;;;;1.77;1.63;;;;;;;-4.23;96.40;100161.94;5035256;28;20056;-86
2022/01/29 03:37:36;;;;;;;1.50;1.40;;;;;;;-4.26;96.39;100168.50;5040837;28;20136;-85
2022/01/29 03:40:05;;;;;;;1.52;1.27;;;;;;;-4.32;96.31;100165.81;5045053;28;20096;-84
2022/01/29 03:42:35;;;;;;;2.08;1.30;;;;;;;-4.33;96.11;100172.19;5040257;28;20155;-83
2022/01/29 03:45:02;;;;;;;1.23;1.10;;;;;;;-4.35;96.00;100163.50;5046237;28;20029;-84
2022/01/29 03:47:28;;;;;;;1.10;1.00;;;;;;;-4.37;95.82;100171.72;5041287;28;20037;-84
2022/01/29 03:49:53;;;;;;;0.80;0.80;;;;;;;-4.38;95.76;100179.97;5047811;28;20047;-83
2022/01/29 03:52:19;;;;;;;1.33;0.73;;;;;;;-4.43;95.90;100174.38;5037373;28;20050;-85
2022/01/29 03:54:45;;;;;;;0.80;0.80;;;;;;;-4.49;95.59;100167.13;5036991;28;20041;-86
2022/01/29 03:57:10;;;;;;;0.50;0.50;;;;;;;-4.53;95.04;100171.19;5034861;28;20041;-85
2022/01/29 03:59:36;;;;;;;0.50;0.50;;;;;;;-4.59;95.52;100181.66;5037204;28;20082;-86
2022/01/29 04:02:02;;;;;;;0.63;0.63;;;;;;;-4.64;94.86;100176.06;5039565;28;20507;-85
2022/01/29 04:04:27;;;;;;;0.77;0.50;;;;;;;-4.66;94.47;100182.66;5038935;28;20064;-86
2022/01/29 04:06:53;;;;;;;0.57;0.50;;;;;;;-4.70;94.74;100187.53;5035165;28;20029;-85
2022/01/29 04:09:20;;;;;;;0.40;0.40;;;;;;;-4.74;94.23;100178.25;5045309;28;20029;-85
2022/01/29 04:11:46;;;;;;;0.40;0.40;;;;;;;-4.78;94.08;100171.63;5036631;28;20048;-84
2022/01/29 04:14:19;;;;;;;0.65;0.60;;;;;;;-4.80;93.79;100171.00;5033499;28;20037;-84
2022/01/29 04:16:45;;;;;;;0.55;0.55;;;;;;;-4.80;92.71;100178.19;5037341;28;20419;-84
2022/01/29 04:19:11;;;;;;;0.95;0.63;;;;;;;-4.79;93.47;100169.97;5044066;28;20044;-84
2022/01/29 04:21:38;;;;;;;0.60;0.50;;;;;;;-4.76;93.36;100172.25;5024142;28;20523;-84
2022/01/29 04:24:04;;;;;;;0.80;0.60;;;;;;;-4.76;93.28;100171.44;5042664;28;20522;-86
2022/01/29 04:26:34;;;;;;;0.70;0.70;;;;;;;-4.77;92.99;100169.78;5040500;28;20037;-84
2022/01/29 04:29:02;;;;;;;1.77;0.93;;;;;;;-4.77;92.72;100173.28;5039356;28;20033;-84
2022/01/29 04:31:36;;;;;;;3.40;1.63;;;;;;;-4.77;93.27;100173.28;5041143;28;20056;-84
2022/01/29 04:34:03;;;;;;;0.95;0.90;;;;;;;-4.75;93.55;100162.38;5044851;28;20032;-84
2022/01/29 04:36:28;;;;;;;1.55;1.10;;;;;;;-4.79;92.87;100167.28;5035127;28;20037;-84
2022/01/29 04:38:54;;;;;;;2.63;0.85;;;;;;;-4.77;93.00;100172.44;5038147;28;20511;-84
2022/01/29 04:41:21;;;;;;;3.00;0.85;;;;;;;-4.79;93.07;100180.69;5040601;28;20098;-84
2022/01/29 04:43:48;;;;;;;0.93;0.80;;;;;;;-4.82;93.09;100178.38;5032052;28;20136;-86
2022/01/29 04:46:14;;;;;;;0.70;0.70;;;;;;;-4.88;92.93;100169.25;5038868;28;20056;-88
2022/01/29 04:48:39;;;;;;;0.85;0.70;;;;;;;-4.92;93.21;100168.00;5024325;28;20038;-87
2022/01/29 04:51:05;;;;;;;0.82;0.60;;;;;;;-4.96;93.23;100171.25;5031121;28;20041;-86
2022/01/29 04:53:31;;;;;;;0.50;0.50;;;;;;;-4.96;92.44;100176.63;5042915;28;20064;-87
2022/01/29 04:55:56;;;;;;;0.50;0.50;;;;;;;-4.97;93.11;100165.09;5037283;28;20045;-88
2022/01/29 04:58:22;;;;;;;1.17;0.82;;;;;;;-4.95;92.99;100168.38;5048713;28;20517;-85
2022/01/29 05:00:48;;;;;;;0.60;0.60;;;;;;;-4.97;92.91;100165.09;5030307;28;20037;-85
2022/01/29 05:03:14;;;;;;;0.47;0.45;;;;;;;-5.03;92.80;100165.88;5031177;28;20033;-86
2022/01/29 05:05:42;;;;;;;0.50;0.40;;;;;;;-5.03;92.64;100170.34;5034306;28;20063;-85
2022/01/29 05:08:08;;;;;;;0.90;0.90;;;;;;;-5.05;92.57;100175.06;5040172;28;20026;-85
2022/01/29 05:10:35;;;;;;;1.02;0.60;;;;;;;-5.08;92.67;100162.91;5037618;28;20033;-89
2022/01/29 05:13:10;;;;;;;0.80;0.80;;;;;;;-5.09;92.67;100168.44;5036236;28;20044;-88
2022/01/29 05:15:40;;;;;;;1.25;0.90;;;;;;;-5.10;92.52;100174.81;5034537;28;20041;-85
2022/01/29 05:29:17;;;;;;;1.00;0.90;;;;;;;-5.07;92.72;100167.25;5040497;28;20029;-84
2022/01/29 05:31:43;;;;;;;1.17;1.00;;;;;;;-5.05;92.67;100177.75;5048390;28;20037;-84
2022/01/29 05:34:10;;;;;;;1.75;0.90;;;;;;;-5.04;92.88;100163.34;5047376;28;20098;-84
2022/01/29 05:36:36;;;;;;;1.10;1.00;;;;;;;-5.01;92.73;100165.66;5034681;28;20052;-84
2022/01/29 05:39:03;;;;;;;0.95;0.80;;;;;;;-4.96;93.10;100163.22;5031586;28;20539;-84
2022/01/29 05:41:53;;;;;;;1.00;0.90;;;;;;;-4.94;92.61;100156.66;5041841;28;20045;-84
2022/01/29 05:44:20;;;;;;;1.00;0.95;;;;;;;-4.95;93.59;100159.53;5043301;28;20038;-84
2022/01/29 05:46:46;;;;;;;1.00;0.90;;;;;;;-4.95;93.17;100164.88;5047917;28;20084;-85
2022/01/29 05:49:12;;;;;;;1.70;0.80;;;;;;;-4.94;93.19;100161.19;5038120;28;20091;-85
2022/01/29 05:52:22;;;;;;;0.88;0.88;;;;;;;-4.91;93.50;100168.81;5044872;28;20037;-85
2022/01/29 05:54:51;;;;;;;1.35;0.75;;;;;;;-4.90;93.37;100165.13;5017148;28;20499;-85
2022/01/29 05:57:17;;;;;;;1.00;0.90;;;;;;;-4.94;93.41;100163.88;5039023;28;20041;-85
2022/01/29 05:59:43;;;;;;;0.80;0.80;;;;;;;-5.00;93.13;100159.28;5051203;28;20039;-85
2022/01/29 06:02:21;;;;;;;2.13;1.58;;;;;;;-5.02;93.98;100151.47;5034382;28;20061;-85
2022/01/29 06:04:50;;;;;;;0.98;0.88;;;;;;;-4.98;93.39;100157.25;5051295;28;20449;-85
2022/01/29 06:07:16;;;;;;;0.80;0.80;;;;;;;-4.98;93.77;100159.94;5040038;28;20473;-84
2022/01/29 06:09:42;;;;;;;1.45;0.90;;;;;;;-5.02;93.47;100158.66;5038956;28;20790;-86
2022/01/29 06:12:08;;;;;;;1.10;1.00;;;;;;;-5.04;93.65;100156.16;5046832;28;20124;-85
2022/01/29 06:14:34;;;;;;;1.10;0.80;;;;;;;-5.07;93.93;100153.03;5031546;28;20503;-85
2022/01/29 06:17:00;;;;;;;0.93;0.90;;;;;;;-5.14;93.21;100149.47;5037418;28;20112;-85
2022/01/29 06:19:52;;;;;;;0.70;0.70;;;;;;;-5.13;93.81;100143.13;5040897;28;20466;-85
2022/01/29 06:22:22;;;;;;;0.90;0.90;;;;;;;-5.16;93.71;100150.50;5030758;28;20084;-85
2022/01/29 06:24:49;;;;;;;1.20;1.10;;;;;;;-5.22;93.33;100147.75;5035415;28;20029;-85
2022/01/29 06:27:14;;;;;;;1.02;1.00;;;;;;;-5.25;93.31;100151.63;5034554;28;20038;-85
2022/01/29 06:29:40;;;;;;;1.23;1.13;;;;;;;-5.25;93.29;100161.50;5031405;28;20107;-87
2022/01/29 06:32:07;;;;;;;1.30;0.80;;;;;;;-5.24;93.46;100174.69;5045944;28;20115;-84
2022/01/29 06:34:32;;;;;;;0.80;0.80;;;;;;;-5.23;94.14;100171.00;5033998;28;20496;-84
2022/01/29 06:36:59;;;;;;;0.70;0.70;;;;;;;-5.22;93.88;100172.63;5033176;28;20048;-86
2022/01/29 06:39:25;;;;;;;1.05;1.00;;;;;;;-5.20;93.50;100167.97;5035768;28;20033;-84
2022/01/29 06:41:51;;;;;;;0.80;0.80;;;;;;;-5.17;93.88;100164.06;5032478;28;20087;-85
2022/01/29 06:44:17;;;;;;;3.67;1.17;;;;;;;-5.19;93.47;100155.41;5037747;28;20033;-85
2022/01/29 06:46:42;;;;;;;1.10;0.90;;;;;;;-5.22;93.73;100156.59;5036285;28;20043;-88
2022/01/29 06:49:08;;;;;;;1.08;0.98;;;;;;;-5.24;93.64;100158.63;5037651;28;20503;-86
2022/01/29 06:51:34;;;;;;;1.63;1.10;;;;;;;-5.25;93.83;100158.84;5050708;28;20400;-88
2022/01/29 06:54:00;;;;;;;2.05;1.58;;;;;;;-5.22;93.53;100166.47;5051027;28;20531;-86
2022/01/29 06:56:25;;;;;;;3.42;1.50;;;;;;;-5.23;93.42;100170.16;5032552;28;20052;-86
2022/01/29 06:58:51;;;;;;;1.30;1.20;;;;;;;-5.21;93.66;100168.97;5039212;28;20040;-84
2022/01/29 07:01:17;;;;;;;1.65;1.20;;;;;;;-5.18;93.47;100179.28;5030970;28;20037;-84
2022/01/29 07:03:42;;;;;;;1.75;1.42;;;;;;;-5.21;93.76;100185.03;5033918;28;20134;-84
2022/01/29 07:06:08;;;;;;;2.08;1.58;;;;;;;-5.22;93.41;100188.69;5034905;28;20037;-84
2022/01/29 07:08:38;;;;;;;1.75;1.33;;;;;;;-5.24;93.33;100189.91;5035153;28;20037;-85
2022/01/29 07:11:07;;;;;;;1.38;1.10;;;;;;;-5.24;93.00;100184.56;5034282;28;20088;-84
2022/01/29 07:13:34;;;;;;;1.30;1.20;;;;;;;-5.29;93.67;100181.63;5044727;28;20036;-85
2022/01/29 07:16:00;;;;;;;4.20;1.90;;;;;;;-5.31;93.15;100181.81;5036368;28;20125;-85
2022/01/29 07:18:26;;;;;;;1.83;1.60;;;;;;;-5.33;92.57;100189.22;5051166;28;20098;-84
2022/01/29 07:20:52;;;;;;;1.67;1.58;;;;;;;-5.33;92.80;100186.53;5034332;28;20045;-79
2022/01/29 07:23:18;;;;;;;1.98;1.50;;;;;;;-5.37;92.72;100189.78;5029374;28;20045;-80
2022/01/29 07:25:43;;;;;;;3.30;2.20;;;;;;;-5.34;93.12;100182.22;5034545;28;20081;-79
2022/01/29 07:28:10;;;;;;;2.85;1.60;;;;;;;-5.35;92.71;100188.56;5034976;28;20045;-77
2022/01/29 07:30:35;;;;;;;1.45;1.35;;;;;;;-5.35;92.75;100183.22;5036020;28;20079;-79
2022/01/29 07:33:01;;;;;;;1.77;1.63;;;;;;;-5.31;92.21;100183.66;5039675;28;20068;-81
2022/01/29 07:35:26;;;;;;;1.58;1.48;;;;;;;-5.33;92.95;100186.53;5037672;28;20052;-80
2022/01/29 07:37:52;;;;;;;1.60;1.50;;;;;;;-5.29;92.92;100179.78;5047554;28;20048;-80
2022/01/29 07:40:18;;;;;;;1.85;1.50;;;;;;;-5.30;92.59;100170.09;5051445;28;20091;-83
2022/01/29 07:42:43;;;;;;;1.45;1.35;;;;;;;-5.32;92.76;100172.16;5041535;28;20040;-80
2022/01/29 07:45:09;;;;;;;1.90;1.20;;;;;;;-5.27;92.21;100179.59;5033954;28;20049;-79
2022/01/29 07:47:36;;;;;;;1.67;1.33;;;;;;;-5.24;92.47;100185.38;5037759;28;20042;-79
2022/01/29 07:50:03;;;;;;;1.50;1.40;;;;;;;-5.21;93.14;100182.34;5033881;28;20049;-81
2022/01/29 07:52:28;;;;;;;3.35;2.03;;;;;;;-5.16;92.45;100187.94;5029352;28;20041;-81
2022/01/29 07:54:54;;;;;;;3.08;1.80;;;;;;;-5.12;92.14;100190.25;5045124;28;20037;-81
2022/01/29 07:57:20;;;;;;;3.47;2.10;;;;;;;-5.15;92.23;100186.09;5003613;28;20498;-79
2022/01/29 07:59:45;;;;;;;2.33;1.80;;;;;;;-5.13;92.14;100188.59;5034779;28;20033;-80
2022/01/29 08:02:11;;;;;;;3.78;1.70;;;;;;;-5.10;92.77;100199.72;5035344;28;20033;-80
2022/01/29 08:04:37;;;;;;;5.72;2.20;;;;;;;-5.09;92.46;100189.84;5034427;28;20038;-81
2022/01/29 08:07:03;;;;;;;1.65;1.48;;;;;;;-5.10;92.43;100197.06;5031672;28;20500;-80
2022/01/29 08:09:28;;;;;;;1.60;1.20;;;;;;;-5.08;92.32;100189.66;5043101;28;20082;-81
2022/01/29 08:11:54;;;;;;;1.60;1.20;;;;;;;-5.04;92.86;100187.44;5036905;28;20059;-81
2022/01/29 08:14:20;;;;;;;3.78;1.30;;;;;;;-5.04;92.54;100187.44;5040183;28;20033;-80
2022/01/29 08:16:45;;;;;;;1.27;1.17;;;;;;;-5.01;92.53;100179.88;5024109;28;20477;-79
2022/01/29 08:19:11;;;;;;;4.40;1.65;;;;;;;-5.02;92.43;100172.88;5036264;28;20504;-79
2022/01/29 08:21:38;;;;;;;1.80;1.52;;;;;;;-4.98;92.65;100175.97;5034229;28;20073;-79
2022/01/29 08:24:06;;;;;;;2.50;1.73;;;;;;;-4.97;91.75;100177.63;5038364;28;20037;-79
2022/01/29 08:26:32;;;;;;;1.50;1.40;;;;;;;-4.95;91.75;100178.25;5035131;28;20576;-79
2022/01/29 08:28:57;;;;;;;1.83;1.30;;;;;;;-4.91;91.83;100174.19;5039891;28;20124;-80
2022/01/29 08:31:23;;;;;;;2.35;1.45;;;;;;;-4.91;91.39;100174.19;5032437;28;20045;-77
2022/01/29 08:33:49;;;;;;;1.85;1.40;;;;;;;-4.89;91.42;100166.78;5037664;28;20184;-73
2022/01/29 08:36:14;;;;;;;1.80;1.23;;;;;;;-4.87;92.07;100154.88;5053101;28;20080;-72
2022/01/29 08:38:40;;;;;;;1.30;1.02;;;;;;;-4.83;91.29;100146.47;5044979;28;20037;-72
2022/01/29 08:41:05;;;;;;;1.20;1.10;;;;;;;-4.85;91.22;100162.72;5030487;28;20125;-71
2022/01/29 08:43:32;;;;;;;1.83;1.40;;;;;;;-4.79;91.29;100158.44;5033700;28;20083;-70
2022/01/29 08:45:59;;;;;;;1.10;1.00;;;;;;;-4.77;91.54;100154.53;5038529;28;20033;-71
2022/01/29 08:48:24;;;;;;;2.30;1.25;;;;;;;-4.83;90.98;100158.00;5029138;28;20045;-73
2022/01/29 08:50:50;;;;;;;1.08;0.95;;;;;;;-4.80;90.94;100152.25;5031224;28;20045;-72
2022/01/29 08:53:16;;;;;;;1.33;1.10;;;;;;;-4.74;91.00;100140.78;5031688;28;20037;-72
2022/01/29 08:55:42;;;;;;;0.85;0.85;;;;;;;-4.74;91.39;100142.63;5028232;28;20042;-72
2022/01/29 08:58:08;;;;;;;2.33;1.10;;;;;;;-4.75;91.12;100131.09;5029960;28;20091;-72
2022/01/29 09:00:39;;;;;;;2.13;1.40;;;;;;;-4.74;91.18;100135.41;5030592;28;20036;-72
2022/01/29 09:03:05;;;;;;;2.28;1.08;;;;;;;-4.68;90.84;100129.31;5028594;28;20068;-73
2022/01/29 09:05:31;;;;;;;3.42;1.85;;;;;;;-4.62;91.40;100119.66;5026696;28;20184;-73
2022/01/29 09:07:57;;;;;;;2.47;1.88;;;;;;;-4.62;90.99;100122.34;5028514;28;20507;-71
2022/01/29 09:10:23;;;;;;;2.70;1.70;;;;;;;-4.59;91.23;100125.44;5031841;28;20045;-71
2022/01/29 09:12:48;;;;;;;4.22;1.52;;;;;;;-4.55;91.53;100116.00;5031899;28;20061;-73
2022/01/29 09:15:14;;;;;;;2.38;1.60;;;;;;;-4.45;91.82;100130.91;5030502;28;20037;-73
2022/01/29 09:17:41;;;;;;;3.08;1.48;;;;;;;-4.42;91.75;100125.97;5063370;28;20033;-73
2022/01/29 09:20:10;;;;;;;3.17;1.50;;;;;;;-4.43;91.47;100129.66;5034369;28;20144;-73
2022/01/29 09:22:37;;;;;;;2.50;1.50;;;;;;;-4.39;91.23;100130.94;5032614;28;20037;-73
2022/01/29 09:25:03;;;;;;;1.25;1.00;;;;;;;-4.36;90.85;100114.47;5035098;28;20460;-73
2022/01/29 09:27:28;;;;;;;2.47;1.15;;;;;;;-4.43;90.72;100123.50;5030663;28;20037;-73
2022/01/29 09:29:54;;;;;;;0.98;0.82;;;;;;;-4.44;90.65;100113.81;5031302;28;20099;-73
2022/01/29 09:32:20;;;;;;;1.63;1.20;;;;;;;-4.39;90.50;100116.72;5028993;28;20030;-72
2022/01/29 09:34:45;;;;;;;0.82;0.80;;;;;;;-4.43;90.08;100120.81;5039141;28;20045;-72
2022/01/29 09:37:11;;;;;;;1.10;1.10;;;;;;;-4.47;89.40;100122.22;5038256;28;20616;-71
2022/01/29 09:39:37;;;;;;;1.05;0.95;;;;;;;-4.45;89.25;100118.34;5031927;28;20527;-71
2022/01/29 09:42:03;;;;;;;1.80;1.00;;;;;;;-4.35;89.31;100120.63;5039017;28;20041;-72
2022/01/29 09:44:30;;;;;;;2.13;1.20;;;;;;;-4.35;89.23;100115.28;5037163;28;20041;-71
2022/01/29 09:46:56;;;;;;;1.25;1.10;;;;;;;-4.39;89.06;100103.31;5045853;28;20037;-71
2022/01/29 09:49:21;;;;;;;1.45;1.10;;;;;;;-4.43;88.37;100099.38;5041089;28;20049;-71
2022/01/29 09:51:47;;;;;;;2.53;1.50;;;;;;;-4.38;88.47;100104.97;5036229;28;20033;-71
2022/01/29 09:54:13;;;;;;;1.42;1.20;;;;;;;-4.30;88.71;100097.63;5022392;28;20033;-72
2022/01/29 09:56:38;;;;;;;1.90;1.02;;;;;;;-4.28;88.38;100095.56;5040810;28;20072;-71
2022/01/29 09:59:04;;;;;;;1.55;1.13;;;;;;;-4.30;87.92;100088.75;5036746;28;20036;-72
2022/01/29 10:01:29;;;;;;;1.40;1.30;;;;;;;-4.29;87.51;100085.88;5025732;28;20088;-72
2022/01/29 10:04:03;;;;;;;2.10;1.40;;;;;;;-4.32;87.44;100082.78;5033273;28;20064;-72
2022/01/29 10:06:29;;;;;;;1.50;1.40;;;;;;;-4.29;87.75;100079.69;5030165;28;20064;-72
2022/01/29 10:08:55;;;;;;;1.00;1.00;;;;;;;-4.27;87.88;100080.31;5034522;28;20495;-72
2022/01/29 10:11:26;;;;;;;1.17;1.08;;;;;;;-4.24;87.90;100085.28;5030155;28;20083;-72
2022/01/29 10:13:58;;;;;;;4.97;1.80;;;;;;;-4.21;87.84;100082.19;5042939;28;20159;-72
2022/01/29 10:16:25;;;;;;;1.52;1.30;;;;;;;-4.12;87.98;100072.16;5032049;28;20500;-73
2022/01/29 10:19:06;;;;;;;2.08;1.30;;;;;;;-4.08;88.10;100063.50;5031905;28;20045;-72
2022/01/29 10:21:44;;;;;;;1.05;0.90;;;;;;;-4.09;88.27;100059.19;5026652;28;20152;-72
2022/01/29 10:24:14;;;;;;;1.38;1.20;;;;;;;-4.09;88.27;100055.66;5035100;28;20045;-73
2022/01/29 10:26:42;;;;;;;1.55;1.08;;;;;;;-4.06;88.31;100042.69;5031265;28;20040;-73
2022/01/29 10:29:09;;;;;;;1.15;1.05;;;;;;;-4.02;87.96;100035.91;5033061;28;20057;-73
2022/01/29 10:31:46;;;;;;;1.65;0.85;;;;;;;-4.04;87.76;100035.28;5028819;28;20416;-72
2022/01/29 10:34:23;;;;;;;1.73;1.08;;;;;;;-4.02;87.41;100029.72;5029512;28;20048;-73
2022/01/29 10:37:15;;;;;;;1.45;0.93;;;;;;;-4.01;87.45;100037.56;5028655;28;20034;-73
2022/01/29 10:39:52;;;;;;;1.10;1.00;;;;;;;-4.05;87.26;100030.94;5013774;28;20037;-72
2022/01/29 10:42:26;;;;;;;2.42;1.27;;;;;;;-4.05;87.04;100030.94;5029005;28;20490;-72
2022/01/29 10:44:55;;;;;;;2.10;1.17;;;;;;;-4.03;87.33;100028.88;5013570;28;20038;-72
2022/01/29 10:47:20;;;;;;;1.48;1.17;;;;;;;-3.98;87.45;100015.72;5031257;28;20484;-72
2022/01/29 10:50:06;;;;;;;1.75;1.10;;;;;;;-3.95;87.79;100009.16;5058219;28;20033;-71
2022/01/29 10:52:34;;;;;;;1.00;0.90;;;;;;;-3.92;87.50;100007.91;5031047;28;20059;-71
2022/01/29 10:55:03;;;;;;;1.53;1.00;;;;;;;-3.92;87.64;100005.22;5049443;28;20071;-73
2022/01/29 10:57:39;;;;;;;1.52;1.20;;;;;;;-3.92;87.05;99991.81;5030876;28;20045;-71
2022/01/29 11:00:09;;;;;;;1.98;1.20;;;;;;;-3.93;87.17;100000.91;5030743;28;20116;-72
2022/01/29 11:02:34;;;;;;;2.50;1.10;;;;;;;-4.00;86.58;99999.00;5046605;28;20424;-70
2022/01/29 11:05:04;;;;;;;1.92;1.10;;;;;;;-3.97;87.04;99995.13;5028761;28;20044;-72
2022/01/29 11:07:31;;;;;;;1.63;0.82;;;;;;;-3.96;86.56;99992.25;5029334;28;20037;-70
2022/01/29 11:09:59;;;;;;;1.63;0.95;;;;;;;-3.99;86.43;99998.00;5027772;28;20124;-72
2022/01/29 11:12:27;;;;;;;1.05;0.90;;;;;;;-3.97;86.25;99989.75;5039296;28;20039;-72
2022/01/29 11:14:55;;;;;;;1.05;0.95;;;;;;;-3.97;86.65;99995.13;5045343;28;20041;-72
2022/01/29 11:17:24;;;;;;;1.75;1.00;;;;;;;-3.94;86.81;99997.38;5033190;28;20071;-74
2022/01/29 11:19:49;;;;;;;1.00;1.00;;;;;;;-3.91;86.78;99994.31;5043068;28;20037;-72
2022/01/29 11:22:20;;;;;;;1.30;1.17;;;;;;;-3.86;87.13;99986.47;5031951;28;20045;-72
2022/01/29 11:24:47;;;;;;;2.95;1.65;;;;;;;-3.82;87.22;99987.72;5030487;28;20373;-71
2022/01/29 11:27:25;;;;;;;1.23;1.08;;;;;;;-3.77;86.91;99973.72;5028580;28;20037;-71
2022/01/29 11:29:57;;;;;;;3.35;1.35;;;;;;;-3.75;86.71;99977.00;5035088;28;20519;-72
2022/01/29 11:32:23;;;;;;;1.67;1.30;;;;;;;-3.74;87.23;99962.56;5032388;28;20099;-72
2022/01/29 11:35:13;;;;;;;1.42;1.10;;;;;;;-3.74;87.33;99958.03;5058510;28;20037;-72
2022/01/29 11:37:40;;;;;;;1.75;1.20;;;;;;;-3.71;86.97;99954.13;5027970;28;20491;-71
2022/01/29 11:40:20;;;;;;;1.48;1.30;;;;;;;-3.68;87.25;99951.03;5032121;28;20057;-71